createdAt,value
2022-11-09T00:00:12.284Z,100241.28
2022-11-09T00:02:44.085Z,100231.34
2022-11-09T00:05:13.245Z,100240.16
2022-11-09T00:07:44.535Z,100246.63
2022-11-09T00:10:16.848Z,100232.97
2022-11-09T00:12:46.980Z,100233.47
2022-11-09T00:15:16.504Z,100249.97
2022-11-09T00:17:48.167Z,100245.59
2022-11-09T00:20:17.630Z,100245.72
2022-11-09T00:22:48.684Z,100245.47
2022-11-09T00:25:20.303Z,100249.38
2022-11-09T00:27:50.673Z,100230.53
2022-11-09T00:30:22.467Z,100239.53
2022-11-09T00:32:57.916Z,100238.38
2022-11-09T00:35:28.258Z,100234.50
2022-11-09T00:37:58.400Z,100233.13
2022-11-09T00:40:27.138Z,100238.38
2022-11-09T00:42:57.290Z,100239.59
2022-11-09T00:45:29.269Z,100235.69
2022-11-09T00:48:01.399Z,100246.63
2022-11-09T00:50:30.294Z,100246.84
2022-11-09T00:52:59.456Z,100245.78
2022-11-09T00:55:31.356Z,100221.31
2022-11-09T00:58:01.389Z,100210.66
2022-11-09T01:00:30.316Z,100238.34
2022-11-09T01:03:00.408Z,100223.22
2022-11-09T01:05:30.275Z,100241.94
2022-11-09T01:08:03.500Z,100221.47
2022-11-09T01:10:32.279Z,100249.84
2022-11-09T01:13:02.739Z,100247.03
2022-11-09T01:15:31.431Z,100234.09
2022-11-09T01:18:00.334Z,100252.97
2022-11-09T01:20:29.302Z,100258.31
2022-11-09T01:22:58.344Z,100264.44
2022-11-09T01:25:32.515Z,100249.13
2022-11-09T01:28:04.106Z,100259.88
2022-11-09T01:30:43.360Z,100257.88
2022-11-09T01:33:13.105Z,100253.28
2022-11-09T01:35:42.445Z,100253.81
2022-11-09T01:38:12.443Z,100257.97
2022-11-09T01:40:41.953Z,99886.47
2022-11-09T01:43:18.925Z,100256.41
2022-11-09T01:45:51.441Z,100256.91
2022-11-09T01:48:25.367Z,100263.19
2022-11-09T01:50:59.559Z,100270.16
2022-11-09T01:53:34.863Z,100256.69
2022-11-09T01:56:07.973Z,100248.84
2022-11-09T01:58:55.685Z,100261.75
2022-11-09T02:01:25.464Z,100254.06
2022-11-09T02:03:58.104Z,100251.81
2022-11-09T02:06:29.910Z,100253.78
2022-11-09T02:09:06.254Z,100254.06
2022-11-09T02:11:37.884Z,100255.78
2022-11-09T02:14:14.029Z,100241.84
2022-11-09T02:16:43.761Z,100258.38
2022-11-09T02:19:13.444Z,100261.91
2022-11-09T02:21:43.560Z,100052.50
2022-11-09T02:24:12.339Z,100231.28
2022-11-09T02:26:44.882Z,100244.19
2022-11-09T02:29:19.912Z,100249.41
2022-11-09T02:31:52.171Z,100244.91
2022-11-09T02:34:23.012Z,100255.34
2022-11-09T02:36:53.732Z,100256.75
2022-11-09T02:39:26.641Z,100254.91
2022-11-09T02:42:03.225Z,100269.53
2022-11-09T02:44:40.694Z,100266.97
2022-11-09T02:47:10.393Z,100252.38
2022-11-09T02:49:39.185Z,100251.41
2022-11-09T02:52:10.085Z,100257.69
2022-11-09T02:54:42.161Z,100247.72
2022-11-09T02:57:11.496Z,100250.78
2022-11-09T02:59:41.511Z,100245.03
2022-11-09T03:02:10.777Z,100252.28
2022-11-09T03:04:39.680Z,100246.09
2022-11-09T03:07:12.778Z,100243.97
2022-11-09T03:09:41.822Z,100241.25
2022-11-09T03:12:32.901Z,100245.09
2022-11-09T03:15:14.992Z,100250.31
2022-11-09T03:17:51.600Z,100250.88
2022-11-09T03:20:22.410Z,100275.16
2022-11-09T03:22:52.886Z,100253.19
2022-11-09T03:25:22.363Z,100250.63
2022-11-09T03:27:51.384Z,100243.88
2022-11-09T03:30:20.378Z,100250.34
2022-11-09T03:32:51.570Z,100268.16
2022-11-09T03:35:21.654Z,100281.00
2022-11-09T03:37:54.400Z,100244.72
2022-11-09T03:40:25.420Z,100272.19
2022-11-09T03:42:54.446Z,100272.91
2022-11-09T03:45:23.351Z,100284.75
2022-11-09T03:47:56.998Z,100273.53
2022-11-09T03:50:27.197Z,100293.53
2022-11-09T03:52:57.452Z,100303.03
2022-11-09T03:55:26.972Z,100304.63
2022-11-09T03:57:58.605Z,100288.06
2022-11-09T04:00:27.590Z,100316.28
2022-11-09T04:02:56.899Z,100304.41
2022-11-09T04:05:25.955Z,100305.94
2022-11-09T04:07:55.984Z,100313.47
2022-11-09T04:10:27.500Z,100319.88
2022-11-09T04:12:59.350Z,100320.00
2022-11-09T04:15:28.418Z,100288.47
2022-11-09T04:17:58.419Z,100263.78
2022-11-09T04:20:27.575Z,100326.63
2022-11-09T04:22:58.365Z,100327.25
2022-11-09T04:25:30.214Z,100342.59
2022-11-09T04:28:03.044Z,100348.91
2022-11-09T04:30:35.344Z,100342.94
2022-11-09T04:33:05.258Z,100341.63
2022-11-09T04:35:37.689Z,100171.38
2022-11-09T04:38:12.982Z,100337.44
2022-11-09T04:40:43.569Z,100326.16
2022-11-09T04:43:16.150Z,100347.88
2022-11-09T04:45:47.669Z,100352.19
2022-11-09T04:48:17.250Z,100351.53
2022-11-09T04:50:46.468Z,100347.81
2022-11-09T04:53:17.334Z,100350.41
2022-11-09T04:55:47.736Z,100355.97
2022-11-09T04:58:21.010Z,100350.88
2022-11-09T05:00:53.538Z,100351.34
2022-11-09T05:03:23.445Z,100339.66
2022-11-09T05:05:53.488Z,100355.97
2022-11-09T05:08:23.560Z,100317.03
2022-11-09T05:10:57.754Z,100358.13
2022-11-09T05:13:26.535Z,100355.16
2022-11-09T05:15:55.490Z,100356.56
2022-11-09T05:18:24.353Z,100348.06
2022-11-09T05:20:59.957Z,100309.03
2022-11-09T05:23:45.138Z,100338.81
2022-11-09T05:26:15.715Z,100325.19
2022-11-09T05:28:44.973Z,100345.00
2022-11-09T05:31:22.704Z,100294.88
2022-11-09T05:33:52.288Z,100309.22
2022-11-09T05:36:21.496Z,100348.19
2022-11-09T05:38:53.271Z,100350.75
2022-11-09T05:41:25.240Z,100359.53
2022-11-09T05:43:54.923Z,100345.09
2022-11-09T05:46:25.299Z,100350.59
2022-11-09T05:48:55.600Z,100350.09
2022-11-09T05:51:24.459Z,100351.25
2022-11-09T05:53:53.578Z,100354.31
2022-11-09T05:56:38.814Z,100356.94
2022-11-09T05:59:10.701Z,100358.63
2022-11-09T06:01:39.738Z,100360.28
2022-11-09T06:04:09.716Z,100370.50
2022-11-09T06:06:39.997Z,100346.03
2022-11-09T06:09:09.601Z,100350.38
2022-11-09T06:11:39.676Z,100388.03
2022-11-09T06:14:12.144Z,100355.56
2022-11-09T06:16:43.338Z,100373.00
2022-11-09T06:19:14.171Z,100360.56
2022-11-09T06:21:43.435Z,100364.56
2022-11-09T06:24:12.770Z,100361.22
2022-11-09T06:26:45.317Z,100381.56
2022-11-09T06:29:15.044Z,100380.47
2022-11-09T06:31:43.973Z,100385.63
2022-11-09T06:34:13.457Z,100395.41
2022-11-09T06:36:42.232Z,100386.63
2022-11-09T06:39:10.994Z,100374.41
2022-11-09T06:41:42.209Z,100380.75
2022-11-09T06:44:21.093Z,100176.22
2022-11-09T06:46:50.270Z,100382.63
2022-11-09T06:49:19.202Z,100386.06
2022-11-09T06:51:48.154Z,100358.25
2022-11-09T06:54:16.912Z,100387.63
2022-11-09T06:56:45.614Z,100382.56
2022-11-09T06:59:17.910Z,100391.16
2022-11-09T07:01:46.948Z,100382.22
2022-11-09T07:04:16.877Z,100395.91
2022-11-09T07:06:45.758Z,100390.16
2022-11-09T07:09:18.192Z,100394.25
2022-11-09T07:11:49.420Z,100391.44
2022-11-09T07:14:19.690Z,100389.78
2022-11-09T07:16:48.859Z,100387.31
2022-11-09T07:19:17.535Z,100386.16
2022-11-09T07:21:47.862Z,100392.38
2022-11-09T07:24:17.891Z,100399.31
2022-11-09T07:26:49.326Z,100405.53
2022-11-09T07:29:19.422Z,100415.56
2022-11-09T07:31:48.426Z,100405.06
2022-11-09T07:34:17.334Z,100419.22
2022-11-09T07:36:48.252Z,100425.81
2022-11-09T07:39:16.993Z,100426.41
2022-11-09T07:41:48.403Z,100423.59
2022-11-09T07:44:21.574Z,100434.38
2022-11-09T07:46:51.006Z,100434.31
2022-11-09T07:49:24.477Z,100416.34
2022-11-09T07:51:56.109Z,100434.25
2022-11-09T07:54:25.852Z,100444.75
2022-11-09T07:56:57.083Z,100434.81
2022-11-09T07:59:27.195Z,100441.69
2022-11-09T08:01:56.327Z,100437.81
2022-11-09T08:04:25.277Z,100436.50
2022-11-09T08:06:54.663Z,100434.56
2022-11-09T08:09:23.689Z,100439.78
2022-11-09T08:11:52.560Z,100439.28
2022-11-09T08:14:21.823Z,100432.59
2022-11-09T08:16:52.571Z,100445.00
2022-11-09T08:19:21.334Z,100452.00
2022-11-09T08:21:57.318Z,100444.69
2022-11-09T08:24:29.344Z,100461.97
2022-11-09T08:27:01.149Z,100451.59
2022-11-09T08:29:29.909Z,100458.22
2022-11-09T08:32:00.882Z,100456.25
2022-11-09T08:34:29.564Z,100459.72
2022-11-09T08:37:01.214Z,100237.59
2022-11-09T08:39:30.008Z,100451.88
2022-11-09T08:41:58.706Z,100454.22
2022-11-09T08:44:27.348Z,100458.88
2022-11-09T08:46:55.990Z,100453.50
2022-11-09T08:49:26.912Z,100446.97
2022-11-09T08:51:55.672Z,100433.16
2022-11-09T08:54:25.590Z,100263.78
2022-11-09T08:56:57.098Z,100469.47
2022-11-09T08:59:25.803Z,100462.28
2022-11-09T09:01:54.589Z,100469.81
2022-11-09T09:04:23.718Z,100452.00
2022-11-09T09:06:54.248Z,100453.13
2022-11-09T09:09:27.485Z,100454.94
2022-11-09T09:11:59.591Z,100444.16
2022-11-09T09:14:31.359Z,100464.75
2022-11-09T09:17:00.204Z,100453.56
2022-11-09T09:19:29.236Z,100465.59
2022-11-09T09:21:59.541Z,100468.50
2022-11-09T09:24:28.372Z,100469.53
2022-11-09T09:26:57.164Z,100422.06
2022-11-09T09:29:25.938Z,100466.34
2022-11-09T09:31:54.647Z,100474.28
2022-11-09T09:34:23.577Z,100482.13
2022-11-09T09:36:53.543Z,100472.41
2022-11-09T09:39:26.168Z,100489.22
2022-11-09T09:42:05.640Z,100476.50
2022-11-09T09:44:41.069Z,100483.34
2022-11-09T09:47:14.146Z,100479.25
2022-11-09T09:49:47.523Z,100471.22
2022-11-09T09:52:22.843Z,100487.81
2022-11-09T09:54:59.270Z,100459.94
2022-11-09T09:57:41.545Z,100491.91
2022-11-09T10:00:20.678Z,100496.75
2022-11-09T10:02:50.972Z,100499.72
2022-11-09T10:05:21.903Z,100502.56
2022-11-09T10:08:00.007Z,100307.34
2022-11-09T10:10:44.616Z,100519.34
2022-11-09T10:13:42.446Z,100521.19
2022-11-09T10:16:20.875Z,100512.81
2022-11-09T10:19:09.934Z,100521.03
2022-11-09T10:21:46.307Z,100539.56
2022-11-09T10:24:36.813Z,100526.97
2022-11-09T10:27:23.585Z,100533.88
2022-11-09T10:29:56.260Z,100538.66
2022-11-09T10:32:26.131Z,100533.69
2022-11-09T10:35:30.862Z,100531.16
2022-11-09T10:38:00.123Z,100524.72
2022-11-09T10:40:36.211Z,100530.25
2022-11-09T10:43:25.770Z,100524.75
2022-11-09T10:46:13.906Z,100493.03
2022-11-09T10:49:20.891Z,100521.94
2022-11-09T10:52:32.922Z,100526.59
2022-11-09T10:55:27.092Z,100515.50
2022-11-09T10:58:28.021Z,100517.94
2022-11-09T11:01:17.744Z,100502.63
2022-11-09T11:04:21.337Z,100507.38
2022-11-09T11:07:20.766Z,100500.47
2022-11-09T11:10:19.315Z,100501.50
2022-11-09T11:13:24.797Z,100523.63
2022-11-09T11:16:26.840Z,100510.47
2022-11-09T11:19:36.089Z,100500.59
2022-11-09T11:22:27.561Z,100517.66
2022-11-09T11:25:20.271Z,100501.63
2022-11-09T11:28:21.261Z,100513.66
2022-11-09T11:31:16.541Z,100501.44
2022-11-09T11:34:26.590Z,100523.06
2022-11-09T11:37:35.803Z,100525.41
2022-11-09T11:40:31.233Z,100532.84
2022-11-09T11:43:34.243Z,100530.81
2022-11-09T11:46:29.665Z,100530.53
2022-11-09T11:49:50.846Z,100530.97
2022-11-09T11:52:56.881Z,100547.00
2022-11-09T11:55:58.023Z,100544.59
2022-11-09T11:59:34.228Z,100560.00
2022-11-09T12:02:46.094Z,100547.63
2022-11-09T12:05:59.763Z,100546.19
2022-11-09T12:09:02.128Z,100556.38
2022-11-09T12:12:08.521Z,100548.03
2022-11-09T12:15:16.979Z,100346.50
2022-11-09T12:18:12.949Z,100535.78
2022-11-09T12:21:17.050Z,100502.81
2022-11-09T12:24:17.127Z,100535.66
2022-11-09T12:27:32.045Z,100528.38
2022-11-09T12:30:23.991Z,100491.63
2022-11-09T12:33:16.812Z,100536.97
2022-11-09T12:36:13.614Z,100538.84
2022-11-09T12:39:07.419Z,100533.25
2022-11-09T12:42:08.128Z,100539.41
2022-11-09T12:45:05.287Z,100537.53
2022-11-09T12:47:57.967Z,100547.34
2022-11-09T12:50:45.559Z,100539.28
2022-11-09T12:53:38.995Z,100548.66
2022-11-09T12:56:30.767Z,100563.03
2022-11-09T12:59:23.470Z,100568.06
2022-11-09T13:02:24.851Z,100572.31
2022-11-09T13:05:31.849Z,100554.59
2022-11-09T13:08:26.220Z,100579.84
2022-11-09T13:11:27.402Z,100596.13
2022-11-09T13:14:38.502Z,100575.25
2022-11-09T13:18:04.102Z,100576.19
2022-11-09T13:20:56.984Z,100557.53
2022-11-09T13:24:03.194Z,100578.88
2022-11-09T13:27:01.311Z,100591.59
2022-11-09T13:29:56.074Z,100578.44
2022-11-09T13:33:25.815Z,100596.47
2022-11-09T13:36:21.685Z,100594.63
2022-11-09T13:39:32.706Z,100602.25
2022-11-09T13:42:33.699Z,100603.19
2022-11-09T13:45:30.110Z,100640.56
2022-11-09T13:48:42.565Z,100606.31
2022-11-09T13:51:45.075Z,100615.06
2022-11-09T13:54:33.715Z,100612.75
2022-11-09T13:57:23.736Z,100613.09
2022-11-09T14:00:19.698Z,100619.91
2022-11-09T14:03:20.331Z,100628.22
2022-11-09T14:06:13.393Z,100633.25
2022-11-09T14:09:01.994Z,100644.88
2022-11-09T14:12:09.891Z,100660.09
2022-11-09T14:15:10.731Z,100659.63
2022-11-09T14:18:16.176Z,100644.41
2022-11-09T14:21:15.566Z,100654.13
2022-11-09T14:24:04.687Z,100676.66
2022-11-09T14:27:15.633Z,100671.69
2022-11-09T14:30:03.701Z,100659.84
2022-11-09T14:32:54.100Z,100604.22
2022-11-09T14:35:45.562Z,100671.59
2022-11-09T14:38:35.608Z,100687.03
2022-11-09T14:41:25.703Z,100694.41
2022-11-09T14:44:19.858Z,100663.69
2022-11-09T14:47:16.901Z,100698.88
2022-11-09T14:50:04.502Z,100667.00
2022-11-09T14:52:56.155Z,100703.56
2022-11-09T14:55:47.405Z,100713.34
2022-11-09T14:58:37.210Z,100707.66
2022-11-09T15:01:27.533Z,100679.06
2022-11-09T15:04:17.745Z,100729.69
2022-11-09T15:07:37.900Z,100686.06
2022-11-09T15:10:29.812Z,100720.63
2022-11-09T15:13:18.337Z,100746.69
2022-11-09T15:16:08.024Z,100573.56
2022-11-09T15:18:56.918Z,100746.50
2022-11-09T15:21:44.816Z,100752.75
2022-11-09T15:24:47.723Z,100763.22
2022-11-09T15:27:37.437Z,100735.88
2022-11-09T15:30:30.857Z,100768.06
2022-11-09T15:33:25.610Z,100750.41
2022-11-09T15:36:29.483Z,100734.91
2022-11-09T15:39:19.058Z,100774.31
2022-11-09T15:42:07.115Z,100774.78
2022-11-09T15:44:58.917Z,100768.66
2022-11-09T15:47:52.986Z,100788.81
2022-11-09T15:50:41.577Z,100777.34
2022-11-09T15:53:29.222Z,100649.66
2022-11-09T15:56:20.976Z,100805.03
2022-11-09T15:59:15.718Z,100803.47
2022-11-09T16:02:05.099Z,100804.22
2022-11-09T16:04:52.617Z,100809.13
2022-11-09T16:07:48.625Z,100820.50
2022-11-09T16:10:37.756Z,100819.78
2022-11-09T16:13:25.186Z,100827.84
2022-11-09T16:16:14.318Z,100832.53
2022-11-09T16:19:03.198Z,100835.34
2022-11-09T16:21:52.717Z,100837.16
2022-11-09T16:24:40.442Z,100837.56
2022-11-09T16:27:49.128Z,100849.13
2022-11-09T16:30:40.606Z,100856.28
2022-11-09T16:33:32.067Z,100855.84
2022-11-09T16:36:26.450Z,100865.38
2022-11-09T16:39:17.017Z,100874.13
2022-11-09T16:42:08.393Z,100877.16
2022-11-09T16:44:59.606Z,100867.81
2022-11-09T16:47:49.849Z,100869.31
2022-11-09T16:50:39.539Z,100892.34
2022-11-09T16:53:28.851Z,100895.63
2022-11-09T16:56:17.182Z,100897.56
2022-11-09T16:59:05.767Z,100896.81
2022-11-09T17:01:53.605Z,100893.00
2022-11-09T17:04:41.465Z,100908.00
2022-11-09T17:07:29.819Z,100925.53
2022-11-09T17:10:20.857Z,100927.47
2022-11-09T17:13:10.727Z,100931.34
2022-11-09T17:15:57.787Z,100942.22
2022-11-09T17:18:47.302Z,100956.72
2022-11-09T17:22:34.985Z,100981.78
2022-11-09T17:25:23.872Z,100966.41
2022-11-09T17:28:14.042Z,100902.50
2022-11-09T17:31:07.944Z,100963.66
2022-11-09T17:34:00.893Z,100974.00
2022-11-09T17:37:03.796Z,100978.81
2022-11-09T17:39:52.820Z,100981.97
2022-11-09T17:42:41.871Z,100975.91
2022-11-09T17:45:29.866Z,100981.41
2022-11-09T17:48:18.147Z,100988.25
2022-11-09T17:51:08.163Z,100990.00
2022-11-09T17:53:56.178Z,100942.81
2022-11-09T17:56:44.288Z,101001.44
2022-11-09T17:59:33.453Z,101003.13
2022-11-09T18:02:20.753Z,101006.50
2022-11-09T18:05:11.006Z,101013.66
2022-11-09T18:07:58.691Z,101007.91
2022-11-09T18:11:05.942Z,100974.59
2022-11-09T18:13:55.456Z,101031.28
2022-11-09T18:16:45.194Z,101022.38
2022-11-09T18:19:33.011Z,100992.16
2022-11-09T18:22:51.779Z,101041.72
2022-11-09T18:25:39.324Z,101038.88
2022-11-09T18:28:27.609Z,101028.94
2022-11-09T18:31:15.911Z,100993.06
2022-11-09T18:34:05.553Z,101042.94
2022-11-09T18:36:54.105Z,101072.56
2022-11-09T18:39:42.102Z,101061.75
2022-11-09T18:42:29.690Z,100852.72
2022-11-09T18:45:17.961Z,100867.97
2022-11-09T18:48:06.247Z,100938.16
2022-11-09T18:50:57.558Z,101062.97
2022-11-09T18:53:47.147Z,101067.09
2022-11-09T18:56:34.867Z,101066.34
2022-11-09T18:59:22.966Z,101085.28
2022-11-09T19:02:14.215Z,101095.28
2022-11-09T19:05:01.621Z,101096.69
2022-11-09T19:07:51.061Z,101100.50
2022-11-09T19:10:38.790Z,101105.09
2022-11-09T19:13:26.193Z,101107.13
2022-11-09T19:16:15.634Z,101094.47
2022-11-09T19:19:03.115Z,101121.66
2022-11-09T19:21:52.263Z,101116.56
2022-11-09T19:24:41.087Z,101132.63
2022-11-09T19:28:00.486Z,101135.34
2022-11-09T19:30:54.031Z,101142.88
2022-11-09T19:33:41.762Z,101150.13
2022-11-09T19:36:31.580Z,101140.13
2022-11-09T19:39:20.087Z,101156.88
2022-11-09T19:42:08.928Z,101146.75
2022-11-09T19:44:58.760Z,101142.09
2022-11-09T19:47:45.835Z,101169.31
2022-11-09T19:50:33.339Z,101162.38
2022-11-09T19:53:22.940Z,101175.63
2022-11-09T19:56:12.863Z,101173.94
2022-11-09T19:59:04.399Z,101182.59
2022-11-09T20:01:51.919Z,101185.19
2022-11-09T20:04:39.022Z,101195.13
2022-11-09T20:07:29.647Z,101193.16
2022-11-09T20:10:17.726Z,101202.09
2022-11-09T20:13:05.795Z,101184.19
2022-11-09T20:16:03.059Z,101195.34
2022-11-09T20:18:50.920Z,101197.69
2022-11-09T20:21:38.243Z,101218.03
2022-11-09T20:24:28.761Z,101221.44
2022-11-09T20:27:16.225Z,101216.78
2022-11-09T20:30:04.456Z,101238.91
2022-11-09T20:32:53.135Z,101234.75
2022-11-09T20:35:44.314Z,101243.28
2022-11-09T20:38:34.570Z,101079.34
2022-11-09T20:41:25.238Z,101245.47
2022-11-09T20:44:14.540Z,101252.34
2022-11-09T20:47:05.485Z,101247.91
2022-11-09T20:49:56.673Z,101250.66
2022-11-09T20:52:43.847Z,101243.41
2022-11-09T20:55:31.378Z,101259.19
2022-11-09T20:58:18.701Z,101265.19
2022-11-09T21:01:08.414Z,101253.50
2022-11-09T21:03:56.246Z,101260.72
2022-11-09T21:06:45.047Z,101273.31
2022-11-09T21:09:32.129Z,101275.97
2022-11-09T21:12:22.647Z,101276.81
2022-11-09T21:15:14.202Z,101262.66
2022-11-09T21:18:01.857Z,101277.59
2022-11-09T21:20:49.411Z,101282.69
2022-11-09T21:23:57.276Z,101285.41
2022-11-09T21:27:02.521Z,101277.59
2022-11-09T21:29:53.109Z,101186.16
2022-11-09T21:32:40.742Z,101294.50
2022-11-09T21:35:28.071Z,101295.53
2022-11-09T21:38:15.902Z,101301.84
2022-11-09T21:41:20.544Z,101306.63
2022-11-09T21:44:09.956Z,101309.81
2022-11-09T21:47:01.129Z,101301.34
2022-11-09T21:49:49.369Z,101313.19
2022-11-09T21:52:36.864Z,101326.34
2022-11-09T21:55:24.493Z,101330.97
2022-11-09T21:58:14.161Z,101332.69
2022-11-09T22:01:09.181Z,101180.06
2022-11-09T22:03:58.620Z,101339.59
2022-11-09T22:06:48.334Z,101344.91
2022-11-09T22:10:08.234Z,101338.53
2022-11-09T22:13:08.910Z,101358.47
2022-11-09T22:16:09.810Z,101356.13
2022-11-09T22:19:20.372Z,101354.38
2022-11-09T22:22:16.889Z,101359.50
2022-11-09T22:25:33.672Z,101352.63
2022-11-09T22:28:21.409Z,101347.19
2022-11-09T22:31:11.435Z,101361.78
2022-11-09T22:33:59.405Z,101313.00
2022-11-09T22:36:47.513Z,101367.63
2022-11-09T22:39:35.335Z,101343.09
2022-11-09T22:42:23.248Z,101357.88
2022-11-09T22:45:12.191Z,101354.41
2022-11-09T22:48:02.304Z,101377.03
2022-11-09T22:50:50.541Z,101362.69
2022-11-09T22:53:38.324Z,101328.97
2022-11-09T22:56:25.967Z,101379.75
2022-11-09T22:59:15.693Z,101391.31
2022-11-09T23:02:03.891Z,101401.47
2022-11-09T23:04:53.249Z,101406.69
2022-11-09T23:07:41.635Z,101404.03
2022-11-09T23:10:29.840Z,101407.66
2022-11-09T23:13:17.951Z,101407.66
2022-11-09T23:16:07.679Z,101414.28
2022-11-09T23:18:56.654Z,101208.41
2022-11-09T23:21:45.575Z,101424.81
2022-11-09T23:24:50.077Z,101428.19
2022-11-09T23:27:37.702Z,101464.00
2022-11-09T23:30:26.879Z,101449.16
2022-11-09T23:33:15.011Z,101446.81
2022-11-09T23:36:04.396Z,101449.38
2022-11-09T23:38:53.831Z,101453.09
2022-11-09T23:41:41.486Z,101449.09
2022-11-09T23:44:30.608Z,101443.22
2022-11-09T23:47:17.994Z,101433.53
2022-11-09T23:50:06.238Z,101430.72
2022-11-09T23:52:53.538Z,101428.88
2022-11-09T23:55:42.643Z,101443.72
2022-11-09T23:58:30.319Z,101462.06
